sensor_id;sensor_type;location;lat;lon;timestamp;P1;durP1;ratioP1;P2;durP2;ratioP2
31652;SDS011;18261;53.648;9.910;2023-05-14T00:01:12;14.30;;;6.53;;
31652;SDS011;18261;53.648;9.910;2023-05-14T00:03:38;9.88;;;6.22;;
31652;SDS011;18261;53.648;9.910;2023-05-14T00:06:05;12.50;;;6.20;;
31652;SDS011;18261;53.648;9.910;2023-05-14T00:08:31;13.60;;;6.38;;
31652;SDS011;18261;53.648;9.910;2023-05-14T00:10:57;14.52;;;6.22;;
31652;SDS011;18261;53.648;9.910;2023-05-14T00:13:24;16.60;;;6.97;;
31652;SDS011;18261;53.648;9.910;2023-05-14T00:15:50;9.63;;;6.65;;
31652;SDS011;18261;53.648;9.910;2023-05-14T00:18:16;9.40;;;6.28;;
31652;SDS011;18261;53.648;9.910;2023-05-14T00:20:42;14.23;;;6.40;;
31652;SDS011;18261;53.648;9.910;2023-05-14T00:23:08;12.70;;;5.80;;
31652;SDS011;18261;53.648;9.910;2023-05-14T00:25:34;17.25;;;6.97;;
31652;SDS011;18261;53.648;9.910;2023-05-14T00:28:00;12.73;;;6.43;;
31652;SDS011;18261;53.648;9.910;2023-05-14T00:30:26;14.13;;;6.75;;
31652;SDS011;18261;53.648;9.910;2023-05-14T00:32:52;12.50;;;6.32;;
31652;SDS011;18261;53.648;9.910;2023-05-14T00:35:18;32.05;;;7.82;;
31652;SDS011;18261;53.648;9.910;2023-05-14T00:37:45;11.95;;;6.53;;
31652;SDS011;18261;53.648;9.910;2023-05-14T00:40:11;14.85;;;6.90;;
31652;SDS011;18261;53.648;9.910;2023-05-14T00:42:38;15.00;;;6.63;;
31652;SDS011;18261;53.648;9.910;2023-05-14T00:45:05;14.02;;;6.43;;
31652;SDS011;18261;53.648;9.910;2023-05-14T00:47:31;14.68;;;7.15;;
31652;SDS011;18261;53.648;9.910;2023-05-14T00:49:58;14.20;;;7.00;;
31652;SDS011;18261;53.648;9.910;2023-05-14T00:52:24;14.27;;;7.15;;
31652;SDS011;18261;53.648;9.910;2023-05-14T00:54:50;12.68;;;7.50;;
31652;SDS011;18261;53.648;9.910;2023-05-14T00:57:17;11.40;;;6.63;;
31652;SDS011;18261;53.648;9.910;2023-05-14T00:59:43;14.07;;;6.90;;
31652;SDS011;18261;53.648;9.910;2023-05-14T01:02:09;13.10;;;7.32;;
31652;SDS011;18261;53.648;9.910;2023-05-14T01:04:35;14.43;;;6.63;;
31652;SDS011;18261;53.648;9.910;2023-05-14T01:07:11;13.68;;;7.03;;
31652;SDS011;18261;53.648;9.910;2023-05-14T01:09:45;13.50;;;7.25;;
31652;SDS011;18261;53.648;9.910;2023-05-14T01:12:18;13.75;;;7.50;;
31652;SDS011;18261;53.648;9.910;2023-05-14T01:17:11;11.48;;;7.45;;
31652;SDS011;18261;53.648;9.910;2023-05-14T01:19:40;12.68;;;7.05;;
31652;SDS011;18261;53.648;9.910;2023-05-14T01:22:13;13.15;;;7.00;;
31652;SDS011;18261;53.648;9.910;2023-05-14T01:24:40;12.55;;;7.10;;
31652;SDS011;18261;53.648;9.910;2023-05-14T01:27:11;15.30;;;8.02;;
31652;SDS011;18261;53.648;9.910;2023-05-14T01:32:07;13.45;;;7.10;;
31652;SDS011;18261;53.648;9.910;2023-05-14T01:34:34;13.38;;;7.03;;
31652;SDS011;18261;53.648;9.910;2023-05-14T01:37:00;14.10;;;7.25;;
31652;SDS011;18261;53.648;9.910;2023-05-14T01:39:27;12.57;;;6.68;;
31652;SDS011;18261;53.648;9.910;2023-05-14T01:41:55;15.95;;;7.35;;
31652;SDS011;18261;53.648;9.910;2023-05-14T01:44:22;14.40;;;7.50;;
31652;SDS011;18261;53.648;9.910;2023-05-14T01:46:48;17.48;;;7.50;;
31652;SDS011;18261;53.648;9.910;2023-05-14T01:49:14;15.15;;;7.32;;
31652;SDS011;18261;53.648;9.910;2023-05-14T01:51:42;13.70;;;7.43;;
31652;SDS011;18261;53.648;9.910;2023-05-14T01:54:08;15.30;;;7.78;;
31652;SDS011;18261;53.648;9.910;2023-05-14T01:56:34;13.38;;;7.63;;
31652;SDS011;18261;53.648;9.910;2023-05-14T01:59:00;13.02;;;7.63;;
31652;SDS011;18261;53.648;9.910;2023-05-14T02:01:26;11.60;;;6.95;;
31652;SDS011;18261;53.648;9.910;2023-05-14T02:03:52;17.25;;;7.40;;
31652;SDS011;18261;53.648;9.910;2023-05-14T02:06:18;15.80;;;7.05;;
31652;SDS011;18261;53.648;9.910;2023-05-14T02:08:43;13.35;;;7.30;;
31652;SDS011;18261;53.648;9.910;2023-05-14T02:11:10;13.82;;;7.15;;
31652;SDS011;18261;53.648;9.910;2023-05-14T02:13:35;16.92;;;7.90;;
31652;SDS011;18261;53.648;9.910;2023-05-14T02:16:02;15.38;;;6.80;;
31652;SDS011;18261;53.648;9.910;2023-05-14T02:18:28;17.77;;;7.72;;
31652;SDS011;18261;53.648;9.910;2023-05-14T02:20:54;12.30;;;6.82;;
31652;SDS011;18261;53.648;9.910;2023-05-14T02:23:21;10.60;;;7.25;;
31652;SDS011;18261;53.648;9.910;2023-05-14T02:25:47;11.18;;;7.20;;
31652;SDS011;18261;53.648;9.910;2023-05-14T02:28:13;15.10;;;7.70;;
31652;SDS011;18261;53.648;9.910;2023-05-14T02:30:39;12.40;;;7.78;;
31652;SDS011;18261;53.648;9.910;2023-05-14T02:33:05;15.30;;;7.40;;
31652;SDS011;18261;53.648;9.910;2023-05-14T02:35:31;14.30;;;7.63;;
31652;SDS011;18261;53.648;9.910;2023-05-14T02:37:57;13.38;;;7.95;;
31652;SDS011;18261;53.648;9.910;2023-05-14T02:40:23;13.55;;;7.88;;
31652;SDS011;18261;53.648;9.910;2023-05-14T02:42:49;15.98;;;7.35;;
31652;SDS011;18261;53.648;9.910;2023-05-14T02:45:15;15.98;;;8.23;;
31652;SDS011;18261;53.648;9.910;2023-05-14T02:47:41;13.68;;;7.97;;
31652;SDS011;18261;53.648;9.910;2023-05-14T02:50:07;30.58;;;7.72;;
31652;SDS011;18261;53.648;9.910;2023-05-14T02:52:34;15.32;;;7.93;;
31652;SDS011;18261;53.648;9.910;2023-05-14T02:55:00;12.85;;;7.93;;
31652;SDS011;18261;53.648;9.910;2023-05-14T02:57:26;10.30;;;7.18;;
31652;SDS011;18261;53.648;9.910;2023-05-14T02:59:52;15.93;;;7.70;;
31652;SDS011;18261;53.648;9.910;2023-05-14T03:02:18;14.80;;;7.13;;
31652;SDS011;18261;53.648;9.910;2023-05-14T03:04:44;11.98;;;7.15;;
31652;SDS011;18261;53.648;9.910;2023-05-14T03:07:10;12.52;;;7.07;;
31652;SDS011;18261;53.648;9.910;2023-05-14T03:09:36;11.73;;;7.70;;
31652;SDS011;18261;53.648;9.910;2023-05-14T03:12:02;12.00;;;8.43;;
31652;SDS011;18261;53.648;9.910;2023-05-14T03:14:28;13.32;;;7.55;;
31652;SDS011;18261;53.648;9.910;2023-05-14T03:16:54;13.02;;;7.65;;
31652;SDS011;18261;53.648;9.910;2023-05-14T03:19:20;11.90;;;7.35;;
31652;SDS011;18261;53.648;9.910;2023-05-14T03:21:46;12.40;;;7.40;;
31652;SDS011;18261;53.648;9.910;2023-05-14T03:24:13;12.35;;;7.95;;
31652;SDS011;18261;53.648;9.910;2023-05-14T03:26:39;13.23;;;7.50;;
31652;SDS011;18261;53.648;9.910;2023-05-14T03:29:05;11.10;;;7.40;;
31652;SDS011;18261;53.648;9.910;2023-05-14T03:31:32;21.63;;;7.25;;
31652;SDS011;18261;53.648;9.910;2023-05-14T03:33:58;13.95;;;7.47;;
31652;SDS011;18261;53.648;9.910;2023-05-14T03:36:24;10.85;;;7.45;;
31652;SDS011;18261;53.648;9.910;2023-05-14T03:38:50;13.18;;;7.60;;
31652;SDS011;18261;53.648;9.910;2023-05-14T03:41:16;13.40;;;7.55;;
31652;SDS011;18261;53.648;9.910;2023-05-14T03:43:43;11.98;;;7.20;;
31652;SDS011;18261;53.648;9.910;2023-05-14T03:46:09;13.07;;;7.75;;
31652;SDS011;18261;53.648;9.910;2023-05-14T03:48:35;13.65;;;7.57;;
31652;SDS011;18261;53.648;9.910;2023-05-14T03:51:01;13.00;;;7.43;;
31652;SDS011;18261;53.648;9.910;2023-05-14T03:53:27;13.43;;;7.35;;
31652;SDS011;18261;53.648;9.910;2023-05-14T03:55:53;11.18;;;7.07;;
31652;SDS011;18261;53.648;9.910;2023-05-14T03:58:19;11.85;;;7.75;;
31652;SDS011;18261;53.648;9.910;2023-05-14T04:00:45;13.15;;;7.72;;
31652;SDS011;18261;53.648;9.910;2023-05-14T04:03:11;13.82;;;7.72;;
31652;SDS011;18261;53.648;9.910;2023-05-14T04:05:37;11.48;;;6.93;;
31652;SDS011;18261;53.648;9.910;2023-05-14T04:08:03;10.38;;;7.55;;
31652;SDS011;18261;53.648;9.910;2023-05-14T04:10:30;15.73;;;7.18;;
31652;SDS011;18261;53.648;9.910;2023-05-14T04:12:56;12.02;;;6.93;;
31652;SDS011;18261;53.648;9.910;2023-05-14T04:15:22;10.18;;;6.88;;
31652;SDS011;18261;53.648;9.910;2023-05-14T04:17:48;11.68;;;7.20;;
31652;SDS011;18261;53.648;9.910;2023-05-14T04:20:14;11.77;;;6.60;;
31652;SDS011;18261;53.648;9.910;2023-05-14T04:22:40;11.80;;;7.40;;
31652;SDS011;18261;53.648;9.910;2023-05-14T04:25:06;14.02;;;6.88;;
31652;SDS011;18261;53.648;9.910;2023-05-14T04:27:32;12.63;;;7.53;;
31652;SDS011;18261;53.648;9.910;2023-05-14T04:29:58;14.30;;;7.28;;
31652;SDS011;18261;53.648;9.910;2023-05-14T04:32:24;15.25;;;7.38;;
31652;SDS011;18261;53.648;9.910;2023-05-14T04:34:50;14.48;;;7.07;;
31652;SDS011;18261;53.648;9.910;2023-05-14T04:37:16;17.90;;;7.35;;
31652;SDS011;18261;53.648;9.910;2023-05-14T04:39:42;11.88;;;6.82;;
31652;SDS011;18261;53.648;9.910;2023-05-14T04:42:08;13.20;;;6.90;;
31652;SDS011;18261;53.648;9.910;2023-05-14T04:44:34;10.35;;;6.60;;
31652;SDS011;18261;53.648;9.910;2023-05-14T04:47:01;10.98;;;6.90;;
31652;SDS011;18261;53.648;9.910;2023-05-14T04:49:27;12.90;;;6.85;;
31652;SDS011;18261;53.648;9.910;2023-05-14T04:51:53;15.45;;;7.43;;
31652;SDS011;18261;53.648;9.910;2023-05-14T04:54:19;10.90;;;7.07;;
31652;SDS011;18261;53.648;9.910;2023-05-14T04:56:45;11.80;;;6.95;;
31652;SDS011;18261;53.648;9.910;2023-05-14T04:59:11;12.80;;;6.80;;
31652;SDS011;18261;53.648;9.910;2023-05-14T05:01:37;12.65;;;6.43;;
31652;SDS011;18261;53.648;9.910;2023-05-14T05:04:03;13.30;;;6.88;;
31652;SDS011;18261;53.648;9.910;2023-05-14T05:06:29;12.45;;;6.68;;
31652;SDS011;18261;53.648;9.910;2023-05-14T05:08:56;18.15;;;6.78;;
31652;SDS011;18261;53.648;9.910;2023-05-14T05:11:22;16.77;;;6.90;;
31652;SDS011;18261;53.648;9.910;2023-05-14T05:13:48;10.93;;;6.95;;
31652;SDS011;18261;53.648;9.910;2023-05-14T05:16:14;10.88;;;6.30;;
31652;SDS011;18261;53.648;9.910;2023-05-14T05:18:40;8.85;;;6.68;;
31652;SDS011;18261;53.648;9.910;2023-05-14T05:21:06;21.98;;;6.88;;
31652;SDS011;18261;53.648;9.910;2023-05-14T05:23:32;10.63;;;5.95;;
31652;SDS011;18261;53.648;9.910;2023-05-14T05:25:58;12.32;;;6.47;;
31652;SDS011;18261;53.648;9.910;2023-05-14T05:28:24;9.25;;;5.75;;
31652;SDS011;18261;53.648;9.910;2023-05-14T05:30:50;14.25;;;7.30;;
31652;SDS011;18261;53.648;9.910;2023-05-14T05:33:16;17.42;;;7.28;;
31652;SDS011;18261;53.648;9.910;2023-05-14T05:35:42;13.07;;;7.38;;
31652;SDS011;18261;53.648;9.910;2023-05-14T05:38:08;18.70;;;6.93;;
31652;SDS011;18261;53.648;9.910;2023-05-14T05:40:34;10.95;;;6.63;;
31652;SDS011;18261;53.648;9.910;2023-05-14T05:43:00;11.73;;;6.88;;
31652;SDS011;18261;53.648;9.910;2023-05-14T05:45:26;12.23;;;6.40;;
31652;SDS011;18261;53.648;9.910;2023-05-14T05:47:52;13.38;;;7.05;;
31652;SDS011;18261;53.648;9.910;2023-05-14T05:50:18;19.58;;;7.65;;
31652;SDS011;18261;53.648;9.910;2023-05-14T05:52:44;13.18;;;7.43;;
31652;SDS011;18261;53.648;9.910;2023-05-14T05:55:10;12.25;;;7.10;;
31652;SDS011;18261;53.648;9.910;2023-05-14T05:57:36;12.38;;;7.57;;
31652;SDS011;18261;53.648;9.910;2023-05-14T06:00:02;13.88;;;6.85;;
31652;SDS011;18261;53.648;9.910;2023-05-14T06:02:37;12.30;;;6.80;;
31652;SDS011;18261;53.648;9.910;2023-05-14T06:05:03;16.17;;;6.60;;
31652;SDS011;18261;53.648;9.910;2023-05-14T06:07:29;18.35;;;5.85;;
31652;SDS011;18261;53.648;9.910;2023-05-14T06:09:55;15.85;;;6.38;;
31652;SDS011;18261;53.648;9.910;2023-05-14T06:12:21;8.32;;;6.20;;
31652;SDS011;18261;53.648;9.910;2023-05-14T06:14:47;12.35;;;6.22;;
31652;SDS011;18261;53.648;9.910;2023-05-14T06:17:13;15.02;;;5.90;;
31652;SDS011;18261;53.648;9.910;2023-05-14T06:19:39;11.25;;;5.80;;
31652;SDS011;18261;53.648;9.910;2023-05-14T06:22:05;12.70;;;6.60;;
31652;SDS011;18261;53.648;9.910;2023-05-14T06:24:31;10.50;;;6.75;;
31652;SDS011;18261;53.648;9.910;2023-05-14T06:26:57;12.07;;;5.40;;
31652;SDS011;18261;53.648;9.910;2023-05-14T06:29:24;14.70;;;7.07;;
31652;SDS011;18261;53.648;9.910;2023-05-14T06:31:50;11.10;;;5.60;;
31652;SDS011;18261;53.648;9.910;2023-05-14T06:34:16;9.25;;;5.25;;
31652;SDS011;18261;53.648;9.910;2023-05-14T06:36:42;16.52;;;5.93;;
31652;SDS011;18261;53.648;9.910;2023-05-14T06:39:07;10.57;;;5.32;;
31652;SDS011;18261;53.648;9.910;2023-05-14T06:41:34;11.60;;;5.28;;
31652;SDS011;18261;53.648;9.910;2023-05-14T06:44:00;10.63;;;5.07;;
31652;SDS011;18261;53.648;9.910;2023-05-14T06:46:26;8.90;;;5.07;;
31652;SDS011;18261;53.648;9.910;2023-05-14T06:48:52;10.38;;;5.25;;
31652;SDS011;18261;53.648;9.910;2023-05-14T06:51:18;10.70;;;5.10;;
31652;SDS011;18261;53.648;9.910;2023-05-14T06:53:43;7.00;;;4.78;;
31652;SDS011;18261;53.648;9.910;2023-05-14T06:56:10;9.07;;;5.00;;
31652;SDS011;18261;53.648;9.910;2023-05-14T06:58:38;11.45;;;4.97;;
31652;SDS011;18261;53.648;9.910;2023-05-14T07:01:04;11.15;;;4.78;;
31652;SDS011;18261;53.648;9.910;2023-05-14T07:03:30;7.65;;;4.63;;
31652;SDS011;18261;53.648;9.910;2023-05-14T07:05:56;9.52;;;4.50;;
31652;SDS011;18261;53.648;9.910;2023-05-14T07:08:22;8.93;;;4.40;;
31652;SDS011;18261;53.648;9.910;2023-05-14T07:10:48;10.40;;;3.97;;
31652;SDS011;18261;53.648;9.910;2023-05-14T07:13:14;9.02;;;3.75;;
31652;SDS011;18261;53.648;9.910;2023-05-14T07:15:40;8.02;;;3.97;;
31652;SDS011;18261;53.648;9.910;2023-05-14T07:18:06;18.08;;;4.15;;
31652;SDS011;18261;53.648;9.910;2023-05-14T07:20:32;11.88;;;4.75;;
31652;SDS011;18261;53.648;9.910;2023-05-14T07:22:58;7.20;;;4.32;;
31652;SDS011;18261;53.648;9.910;2023-05-14T07:25:24;8.48;;;4.30;;
31652;SDS011;18261;53.648;9.910;2023-05-14T07:27:50;9.35;;;4.30;;
31652;SDS011;18261;53.648;9.910;2023-05-14T07:30:16;12.00;;;4.72;;
31652;SDS011;18261;53.648;9.910;2023-05-14T07:32:43;7.53;;;4.10;;
31652;SDS011;18261;53.648;9.910;2023-05-14T07:35:09;7.65;;;3.92;;
31652;SDS011;18261;53.648;9.910;2023-05-14T07:37:35;10.05;;;4.20;;
31652;SDS011;18261;53.648;9.910;2023-05-14T07:40:02;7.85;;;4.10;;
31652;SDS011;18261;53.648;9.910;2023-05-14T07:42:28;7.95;;;4.20;;
31652;SDS011;18261;53.648;9.910;2023-05-14T07:44:54;6.22;;;3.97;;
31652;SDS011;18261;53.648;9.910;2023-05-14T07:47:20;6.72;;;3.90;;
31652;SDS011;18261;53.648;9.910;2023-05-14T07:49:46;8.13;;;3.42;;
31652;SDS011;18261;53.648;9.910;2023-05-14T07:52:12;9.57;;;3.92;;
31652;SDS011;18261;53.648;9.910;2023-05-14T07:54:38;5.38;;;3.60;;
31652;SDS011;18261;53.648;9.910;2023-05-14T07:57:04;11.50;;;4.47;;
31652;SDS011;18261;53.648;9.910;2023-05-14T07:59:30;13.25;;;4.13;;
31652;SDS011;18261;53.648;9.910;2023-05-14T08:01:56;7.63;;;3.35;;
31652;SDS011;18261;53.648;9.910;2023-05-14T08:04:22;8.85;;;4.40;;
31652;SDS011;18261;53.648;9.910;2023-05-14T08:06:48;5.70;;;4.00;;
31652;SDS011;18261;53.648;9.910;2023-05-14T08:09:14;18.50;;;4.63;;
31652;SDS011;18261;53.648;9.910;2023-05-14T08:11:40;12.40;;;4.53;;
31652;SDS011;18261;53.648;9.910;2023-05-14T08:14:06;16.08;;;3.78;;
31652;SDS011;18261;53.648;9.910;2023-05-14T08:16:32;9.10;;;3.75;;
31652;SDS011;18261;53.648;9.910;2023-05-14T08:18:58;11.15;;;4.15;;
31652;SDS011;18261;53.648;9.910;2023-05-14T08:21:24;7.28;;;3.85;;
31652;SDS011;18261;53.648;9.910;2023-05-14T08:23:52;13.55;;;4.00;;
31652;SDS011;18261;53.648;9.910;2023-05-14T08:26:18;7.20;;;4.10;;
31652;SDS011;18261;53.648;9.910;2023-05-14T08:28:43;6.88;;;3.65;;
31652;SDS011;18261;53.648;9.910;2023-05-14T08:31:09;11.20;;;4.63;;
31652;SDS011;18261;53.648;9.910;2023-05-14T08:33:38;11.80;;;4.07;;
31652;SDS011;18261;53.648;9.910;2023-05-14T08:36:04;10.25;;;3.40;;
31652;SDS011;18261;53.648;9.910;2023-05-14T08:38:31;9.20;;;3.30;;
31652;SDS011;18261;53.648;9.910;2023-05-14T08:40:57;6.50;;;3.38;;
31652;SDS011;18261;53.648;9.910;2023-05-14T08:43:30;7.07;;;3.30;;
31652;SDS011;18261;53.648;9.910;2023-05-14T08:46:00;12.77;;;3.67;;
31652;SDS011;18261;53.648;9.910;2023-05-14T08:48:27;9.48;;;3.60;;
31652;SDS011;18261;53.648;9.910;2023-05-14T08:50:53;7.65;;;3.58;;
31652;SDS011;18261;53.648;9.910;2023-05-14T08:53:19;6.20;;;3.40;;
31652;SDS011;18261;53.648;9.910;2023-05-14T08:55:45;10.25;;;3.85;;
31652;SDS011;18261;53.648;9.910;2023-05-14T08:58:12;9.65;;;4.10;;
31652;SDS011;18261;53.648;9.910;2023-05-14T09:00:38;13.48;;;3.47;;
31652;SDS011;18261;53.648;9.910;2023-05-14T09:03:04;17.98;;;3.88;;
31652;SDS011;18261;53.648;9.910;2023-05-14T09:05:31;9.43;;;3.63;;
31652;SDS011;18261;53.648;9.910;2023-05-14T09:07:57;16.27;;;4.00;;
31652;SDS011;18261;53.648;9.910;2023-05-14T09:10:23;10.93;;;3.45;;
31652;SDS011;18261;53.648;9.910;2023-05-14T09:12:50;9.40;;;3.90;;
31652;SDS011;18261;53.648;9.910;2023-05-14T09:15:16;7.22;;;3.60;;
31652;SDS011;18261;53.648;9.910;2023-05-14T09:17:42;8.43;;;3.88;;
31652;SDS011;18261;53.648;9.910;2023-05-14T09:20:10;6.68;;;3.13;;
31652;SDS011;18261;53.648;9.910;2023-05-14T09:22:37;8.77;;;3.70;;
31652;SDS011;18261;53.648;9.910;2023-05-14T09:25:04;13.65;;;3.25;;
31652;SDS011;18261;53.648;9.910;2023-05-14T09:27:31;10.98;;;4.13;;
31652;SDS011;18261;53.648;9.910;2023-05-14T09:30:10;6.10;;;3.13;;
31652;SDS011;18261;53.648;9.910;2023-05-14T09:32:37;11.07;;;3.17;;
31652;SDS011;18261;53.648;9.910;2023-05-14T09:35:11;9.75;;;3.40;;
31652;SDS011;18261;53.648;9.910;2023-05-14T09:37:38;6.85;;;3.20;;
31652;SDS011;18261;53.648;9.910;2023-05-14T09:40:06;6.43;;;3.00;;
31652;SDS011;18261;53.648;9.910;2023-05-14T09:42:36;12.50;;;3.30;;
31652;SDS011;18261;53.648;9.910;2023-05-14T09:45:02;9.57;;;3.30;;
31652;SDS011;18261;53.648;9.910;2023-05-14T09:47:29;8.52;;;3.05;;
31652;SDS011;18261;53.648;9.910;2023-05-14T09:49:55;10.85;;;3.30;;
31652;SDS011;18261;53.648;9.910;2023-05-14T09:52:24;5.60;;;2.83;;
31652;SDS011;18261;53.648;9.910;2023-05-14T09:54:51;10.80;;;2.90;;
31652;SDS011;18261;53.648;9.910;2023-05-14T09:57:17;5.72;;;3.20;;
31652;SDS011;18261;53.648;9.910;2023-05-14T09:59:43;10.95;;;3.40;;
31652;SDS011;18261;53.648;9.910;2023-05-14T10:02:11;13.23;;;2.85;;
31652;SDS011;18261;53.648;9.910;2023-05-14T10:04:40;10.23;;;3.50;;
31652;SDS011;18261;53.648;9.910;2023-05-14T10:07:07;8.25;;;3.20;;
31652;SDS011;18261;53.648;9.910;2023-05-14T10:09:33;9.77;;;3.00;;
31652;SDS011;18261;53.648;9.910;2023-05-14T10:12:00;10.65;;;2.97;;
31652;SDS011;18261;53.648;9.910;2023-05-14T10:14:28;9.23;;;3.28;;
31652;SDS011;18261;53.648;9.910;2023-05-14T10:16:56;11.35;;;3.03;;
31652;SDS011;18261;53.648;9.910;2023-05-14T10:19:23;6.95;;;2.88;;
31652;SDS011;18261;53.648;9.910;2023-05-14T10:21:58;13.23;;;3.63;;
31652;SDS011;18261;53.648;9.910;2023-05-14T10:24:27;14.73;;;3.85;;
31652;SDS011;18261;53.648;9.910;2023-05-14T10:26:53;7.30;;;3.08;;
31652;SDS011;18261;53.648;9.910;2023-05-14T10:29:19;8.35;;;2.97;;
31652;SDS011;18261;53.648;9.910;2023-05-14T10:31:55;8.82;;;3.25;;
31652;SDS011;18261;53.648;9.910;2023-05-14T10:34:31;6.57;;;3.50;;
31652;SDS011;18261;53.648;9.910;2023-05-14T10:36:59;8.32;;;3.10;;
31652;SDS011;18261;53.648;9.910;2023-05-14T10:39:41;9.35;;;2.50;;
31652;SDS011;18261;53.648;9.910;2023-05-14T10:42:09;7.65;;;2.90;;
31652;SDS011;18261;53.648;9.910;2023-05-14T10:44:36;6.18;;;2.50;;
31652;SDS011;18261;53.648;9.910;2023-05-14T10:47:05;10.93;;;2.80;;
31652;SDS011;18261;53.648;9.910;2023-05-14T10:49:31;9.75;;;3.10;;
31652;SDS011;18261;53.648;9.910;2023-05-14T10:51:58;8.60;;;3.35;;
31652;SDS011;18261;53.648;9.910;2023-05-14T10:54:26;7.05;;;2.95;;
31652;SDS011;18261;53.648;9.910;2023-05-14T10:56:52;4.57;;;2.92;;
31652;SDS011;18261;53.648;9.910;2023-05-14T10:59:18;6.18;;;3.17;;
31652;SDS011;18261;53.648;9.910;2023-05-14T11:01:44;7.55;;;3.03;;
31652;SDS011;18261;53.648;9.910;2023-05-14T11:04:17;10.40;;;3.08;;
31652;SDS011;18261;53.648;9.910;2023-05-14T11:06:43;12.93;;;3.05;;
31652;SDS011;18261;53.648;9.910;2023-05-14T11:09:10;8.93;;;3.08;;
31652;SDS011;18261;53.648;9.910;2023-05-14T11:11:37;10.07;;;4.22;;
31652;SDS011;18261;53.648;9.910;2023-05-14T11:14:03;5.60;;;2.92;;
31652;SDS011;18261;53.648;9.910;2023-05-14T11:16:29;8.73;;;3.22;;
31652;SDS011;18261;53.648;9.910;2023-05-14T11:19:02;7.22;;;2.58;;
31652;SDS011;18261;53.648;9.910;2023-05-14T11:21:28;11.02;;;2.80;;
31652;SDS011;18261;53.648;9.910;2023-05-14T11:23:56;16.65;;;4.05;;
31652;SDS011;18261;53.648;9.910;2023-05-14T11:26:22;7.85;;;3.17;;
31652;SDS011;18261;53.648;9.910;2023-05-14T11:28:48;7.13;;;3.08;;
31652;SDS011;18261;53.648;9.910;2023-05-14T11:31:14;7.65;;;3.13;;
31652;SDS011;18261;53.648;9.910;2023-05-14T11:33:40;7.50;;;3.28;;
31652;SDS011;18261;53.648;9.910;2023-05-14T11:36:08;6.75;;;3.20;;
31652;SDS011;18261;53.648;9.910;2023-05-14T11:38:35;15.15;;;3.53;;
31652;SDS011;18261;53.648;9.910;2023-05-14T11:41:11;12.35;;;3.20;;
31652;SDS011;18261;53.648;9.910;2023-05-14T11:43:40;7.95;;;3.60;;
31652;SDS011;18261;53.648;9.910;2023-05-14T11:46:06;9.40;;;3.38;;
31652;SDS011;18261;53.648;9.910;2023-05-14T11:48:32;12.93;;;3.38;;
31652;SDS011;18261;53.648;9.910;2023-05-14T11:50:58;8.88;;;3.10;;
31652;SDS011;18261;53.648;9.910;2023-05-14T11:53:25;10.48;;;3.22;;
31652;SDS011;18261;53.648;9.910;2023-05-14T11:55:52;11.20;;;3.83;;
31652;SDS011;18261;53.648;9.910;2023-05-14T11:58:18;8.43;;;3.80;;
31652;SDS011;18261;53.648;9.910;2023-05-14T12:00:44;7.43;;;3.13;;
31652;SDS011;18261;53.648;9.910;2023-05-14T12:03:11;15.15;;;5.80;;
31652;SDS011;18261;53.648;9.910;2023-05-14T12:05:37;7.00;;;2.83;;
31652;SDS011;18261;53.648;9.910;2023-05-14T12:08:18;8.80;;;3.33;;
31652;SDS011;18261;53.648;9.910;2023-05-14T12:10:44;7.93;;;3.30;;
31652;SDS011;18261;53.648;9.910;2023-05-14T12:13:10;6.60;;;3.03;;
31652;SDS011;18261;53.648;9.910;2023-05-14T12:15:39;9.02;;;3.72;;
31652;SDS011;18261;53.648;9.910;2023-05-14T12:18:07;12.93;;;3.25;;
31652;SDS011;18261;53.648;9.910;2023-05-14T12:20:33;6.80;;;2.92;;
31652;SDS011;18261;53.648;9.910;2023-05-14T12:23:00;9.80;;;3.22;;
31652;SDS011;18261;53.648;9.910;2023-05-14T12:25:26;10.25;;;3.17;;
31652;SDS011;18261;53.648;9.910;2023-05-14T12:27:54;8.07;;;2.83;;
31652;SDS011;18261;53.648;9.910;2023-05-14T12:30:20;13.60;;;4.05;;
31652;SDS011;18261;53.648;9.910;2023-05-14T12:32:45;10.57;;;3.20;;
31652;SDS011;18261;53.648;9.910;2023-05-14T12:35:15;12.85;;;3.22;;
31652;SDS011;18261;53.648;9.910;2023-05-14T12:37:41;5.05;;;3.17;;
31652;SDS011;18261;53.648;9.910;2023-05-14T12:40:07;7.10;;;2.92;;
31652;SDS011;18261;53.648;9.910;2023-05-14T12:42:33;14.60;;;4.22;;
31652;SDS011;18261;53.648;9.910;2023-05-14T12:44:59;6.05;;;2.90;;
31652;SDS011;18261;53.648;9.910;2023-05-14T12:47:29;4.75;;;2.97;;
31652;SDS011;18261;53.648;9.910;2023-05-14T12:49:56;7.28;;;3.60;;
31652;SDS011;18261;53.648;9.910;2023-05-14T12:52:22;7.43;;;3.10;;
31652;SDS011;18261;53.648;9.910;2023-05-14T12:54:48;10.00;;;3.20;;
31652;SDS011;18261;53.648;9.910;2023-05-14T12:57:14;8.55;;;3.25;;
31652;SDS011;18261;53.648;9.910;2023-05-14T12:59:40;6.43;;;3.25;;
31652;SDS011;18261;53.648;9.910;2023-05-14T13:02:06;7.68;;;3.28;;
31652;SDS011;18261;53.648;9.910;2023-05-14T13:04:32;8.13;;;3.53;;
31652;SDS011;18261;53.648;9.910;2023-05-14T13:06:58;15.18;;;4.40;;
31652;SDS011;18261;53.648;9.910;2023-05-14T13:09:24;7.78;;;3.15;;
31652;SDS011;18261;53.648;9.910;2023-05-14T13:11:51;5.93;;;3.05;;
31652;SDS011;18261;53.648;9.910;2023-05-14T13:14:17;11.32;;;3.00;;
31652;SDS011;18261;53.648;9.910;2023-05-14T13:16:43;8.85;;;3.42;;
31652;SDS011;18261;53.648;9.910;2023-05-14T13:19:09;11.90;;;3.40;;
31652;SDS011;18261;53.648;9.910;2023-05-14T13:21:35;11.23;;;3.35;;
31652;SDS011;18261;53.648;9.910;2023-05-14T13:24:01;6.18;;;3.28;;
31652;SDS011;18261;53.648;9.910;2023-05-14T13:26:28;11.05;;;3.45;;
31652;SDS011;18261;53.648;9.910;2023-05-14T13:28:54;14.63;;;5.40;;
31652;SDS011;18261;53.648;9.910;2023-05-14T13:31:20;9.65;;;3.45;;
31652;SDS011;18261;53.648;9.910;2023-05-14T13:33:46;8.05;;;3.45;;
31652;SDS011;18261;53.648;9.910;2023-05-14T13:36:12;10.48;;;4.03;;
31652;SDS011;18261;53.648;9.910;2023-05-14T13:38:39;9.05;;;3.63;;
31652;SDS011;18261;53.648;9.910;2023-05-14T13:41:05;9.18;;;3.13;;
31652;SDS011;18261;53.648;9.910;2023-05-14T13:43:31;13.73;;;3.10;;
31652;SDS011;18261;53.648;9.910;2023-05-14T13:45:58;7.65;;;3.00;;
31652;SDS011;18261;53.648;9.910;2023-05-14T13:48:24;5.43;;;3.08;;
31652;SDS011;18261;53.648;9.910;2023-05-14T13:50:51;6.50;;;3.00;;
31652;SDS011;18261;53.648;9.910;2023-05-14T13:53:17;8.68;;;3.40;;
31652;SDS011;18261;53.648;9.910;2023-05-14T13:55:43;10.48;;;3.53;;
31652;SDS011;18261;53.648;9.910;2023-05-14T13:58:09;11.65;;;3.30;;
31652;SDS011;18261;53.648;9.910;2023-05-14T14:00:35;7.78;;;3.17;;
31652;SDS011;18261;53.648;9.910;2023-05-14T14:03:01;9.93;;;3.30;;
31652;SDS011;18261;53.648;9.910;2023-05-14T14:05:27;5.80;;;3.17;;
31652;SDS011;18261;53.648;9.910;2023-05-14T14:07:54;7.75;;;3.50;;
31652;SDS011;18261;53.648;9.910;2023-05-14T14:10:20;9.68;;;3.00;;
31652;SDS011;18261;53.648;9.910;2023-05-14T14:12:46;4.85;;;3.20;;
31652;SDS011;18261;53.648;9.910;2023-05-14T14:15:12;8.35;;;3.25;;
31652;SDS011;18261;53.648;9.910;2023-05-14T14:17:38;9.73;;;3.15;;
31652;SDS011;18261;53.648;9.910;2023-05-14T14:20:06;5.60;;;2.88;;
31652;SDS011;18261;53.648;9.910;2023-05-14T14:22:32;7.82;;;2.80;;
31652;SDS011;18261;53.648;9.910;2023-05-14T14:24:58;10.18;;;2.33;;
31652;SDS011;18261;53.648;9.910;2023-05-14T14:27:23;8.13;;;2.53;;
31652;SDS011;18261;53.648;9.910;2023-05-14T14:29:49;9.43;;;2.85;;
31652;SDS011;18261;53.648;9.910;2023-05-14T14:32:15;7.53;;;2.90;;
31652;SDS011;18261;53.648;9.910;2023-05-14T14:34:41;8.57;;;2.90;;
31652;SDS011;18261;53.648;9.910;2023-05-14T14:37:07;10.40;;;3.38;;
31652;SDS011;18261;53.648;9.910;2023-05-14T14:39:33;8.52;;;3.13;;